Terminal Aerodrome Forecast
Issued by NWS Grand Forks, ND

Home | Current Version | Previous Version | Text Only | Print | Product List | Glossary Off
Versions: 1 2 3 4 5 6 7 8 9 10 11 12 13 14 15 16 17 18 19

000
FTUS43 KFGF 281700
TAFFAR
TAF
KFAR 281720Z 2818/2918 36012G18KT P6SM BKN090
     FM282200 36016KT P6SM VCSH BKN050
     FM290200 36014KT P6SM OVC025
     FM290600 02010KT P6SM OVC015
     FM291400 02008KT P6SM OVC025=

USA.gov is the U.S. government's official web portal to all federal, state and local government web resources and services.